Time;durP1;ratioP1;P1;durP2;ratioP2;P2;SDS_P1;SDS_P2;PMS_P1;PMS_P2;Temp;Humidity;BMP_temperature;BMP_pressure;BME280_temperature;BME280_humidity;BME280_pressure;Samples;Min_cycle;Max_cycle;Signal;HPM_P1;HPM_P2
2022/06/20 00:01:52;;;;;;;6.00;1.60;;;13.30;99.90;;;;;;5043402;28;20207;-46
2022/06/20 00:04:20;;;;;;;3.20;1.30;;;13.20;99.90;;;;;;5044429;28;20195;-47
2022/06/20 00:06:48;;;;;;;6.30;1.63;;;13.20;99.90;;;;;;5027931;28;21167;-46
2022/06/20 00:09:15;;;;;;;8.73;1.67;;;13.20;99.90;;;;;;5041523;28;20226;-49
2022/06/20 00:11:45;;;;;;;3.43;1.00;;;13.20;99.90;;;;;;5040981;28;20249;-48
2022/06/20 00:14:17;;;;;;;3.57;1.40;;;13.10;99.90;;;;;;5045646;28;20199;-46
2022/06/20 00:16:45;;;;;;;3.87;1.27;;;13.10;99.90;;;;;;5034712;28;20218;-46
2022/06/20 00:19:12;;;;;;;3.97;1.40;;;13.00;99.90;;;;;;5045861;28;20200;-47
2022/06/20 00:21:40;;;;;;;3.93;1.40;;;13.10;99.90;;;;;;5027536;28;21626;-48
2022/06/20 00:24:08;;;;;;;6.50;1.43;;;13.10;99.90;;;;;;5041461;28;20214;-46
2022/06/20 00:26:36;;;;;;;5.93;1.57;;;13.00;99.90;;;;;;5042230;28;20199;-47
2022/06/20 00:29:04;;;;;;;4.03;1.40;;;12.90;99.90;;;;;;5045331;28;20239;-46
2022/06/20 00:31:33;;;;;;;8.10;1.33;;;13.00;99.90;;;;;;5035917;28;20280;-50
2022/06/20 00:34:00;;;;;;;6.17;1.37;;;13.00;99.90;;;;;;5044316;28;20206;-48
2022/06/20 00:36:27;;;;;;;3.03;1.50;;;13.00;99.90;;;;;;5043530;28;20199;-49
2022/06/20 00:38:56;;;;;;;4.80;1.60;;;13.00;99.90;;;;;;5025550;28;20932;-50
2022/06/20 00:41:26;;;;;;;9.00;1.93;;;13.00;99.90;;;;;;5041102;28;20741;-47
2022/06/20 00:43:54;;;;;;;4.50;1.60;;;13.10;99.90;;;;;;5042598;28;20187;-46
2022/06/20 00:46:27;;;;;;;3.13;1.30;;;13.10;99.90;;;;;;5037974;28;20222;-52
2022/06/20 00:49:07;;;;;;;4.80;1.90;;;13.10;99.90;;;;;;5043218;28;20286;-48
2022/06/20 00:51:39;;;;;;;5.60;1.70;;;13.00;99.90;;;;;;5041807;28;20242;-47
2022/06/20 00:54:14;;;;;;;5.57;1.80;;;13.00;99.90;;;;;;5030172;28;20749;-46
2022/06/20 00:56:50;;;;;;;3.80;1.27;;;12.90;99.90;;;;;;5040757;28;20272;-48
2022/06/20 00:59:22;;;;;;;3.57;1.30;;;13.00;99.90;;;;;;5044892;28;20195;-48
2022/06/20 01:01:50;;;;;;;4.87;1.50;;;13.00;99.90;;;;;;5035289;28;20223;-49
2022/06/20 01:04:24;;;;;;;4.50;1.40;;;13.00;99.90;;;;;;5044499;28;20564;-48
2022/06/20 01:06:56;;;;;;;4.87;1.60;;;13.00;99.90;;;;;;5042194;28;20496;-48
2022/06/20 01:09:26;;;;;;;4.27;1.60;;;13.00;99.90;;;;;;5027442;28;20215;-48
2022/06/20 01:11:56;;;;;;;5.97;1.50;;;13.00;99.90;;;;;;5042249;28;20207;-46
2022/06/20 01:14:26;;;;;;;3.13;1.50;;;13.00;99.90;;;;;;5043399;28;20627;-49
2022/06/20 01:16:58;;;;;;;4.90;1.80;;;13.00;99.90;;;;;;5035466;28;20242;-46
2022/06/20 01:19:45;;;;;;;4.93;1.60;;;13.00;99.90;;;;;;5036828;28;20198;-48
2022/06/20 01:22:24;;;;;;;4.37;1.50;;;13.00;99.90;;;;;;5044550;28;20223;-47
2022/06/20 01:25:01;;;;;;;3.97;1.60;;;13.00;99.90;;;;;;5027015;28;20281;-48
2022/06/20 01:27:34;;;;;;;7.17;1.73;;;13.00;99.90;;;;;;5042177;28;20293;-48
2022/06/20 01:30:02;;;;;;;6.33;1.53;;;13.00;99.90;;;;;;5043962;28;20218;-45
2022/06/20 01:32:31;;;;;;;4.27;1.53;;;13.00;99.90;;;;;;5038941;28;20557;-48
2022/06/20 01:35:00;;;;;;;2.60;1.40;;;13.00;99.90;;;;;;5040543;28;20207;-45
2022/06/20 01:37:29;;;;;;;4.77;1.60;;;13.00;99.90;;;;;;5036124;28;20203;-46
2022/06/20 01:40:00;;;;;;;4.93;2.00;;;13.00;99.90;;;;;;5017368;28;20242;-48
2022/06/20 01:42:28;;;;;;;6.53;1.80;;;13.00;99.90;;;;;;5039395;28;20219;-47
2022/06/20 01:45:01;;;;;;;4.20;1.53;;;13.00;99.90;;;;;;5041828;28;20191;-46
2022/06/20 01:47:29;;;;;;;7.70;2.80;;;13.00;99.90;;;;;;5038913;28;20195;-47
2022/06/20 01:50:00;;;;;;;5.13;1.70;;;12.90;99.90;;;;;;5039183;28;20957;-47
2022/06/20 01:52:33;;;;;;;4.40;2.03;;;12.80;99.90;;;;;;5042394;28;20298;-48
2022/06/20 01:55:09;;;;;;;5.50;1.87;;;12.80;99.90;;;;;;5043100;28;20698;-45
2022/06/20 01:57:40;;;;;;;5.53;1.60;;;12.80;99.90;;;;;;5025682;28;20210;-49
2022/06/20 02:00:12;;;;;;;4.03;1.83;;;12.80;99.90;;;;;;5043795;28;20203;-46
2022/06/20 02:02:43;;;;;;;8.70;2.37;;;12.80;99.90;;;;;;5039800;28;20207;-46
2022/06/20 02:05:14;;;;;;;4.87;2.27;;;12.80;99.90;;;;;;5036519;28;20226;-45
2022/06/20 02:07:43;;;;;;;3.73;2.00;;;12.80;99.90;;;;;;5039732;28;20238;-46
2022/06/20 02:10:14;;;;;;;8.73;2.07;;;12.70;99.90;;;;;;5043249;28;20277;-50
2022/06/20 02:12:42;;;;;;;4.67;2.00;;;12.60;99.90;;;;;;5024511;28;20384;-46
2022/06/20 02:15:15;;;;;;;4.67;2.07;;;12.70;99.90;;;;;;5043145;28;20199;-48
2022/06/20 02:17:45;;;;;;;2.13;1.67;;;12.70;99.90;;;;;;5039619;28;20199;-46
2022/06/20 02:20:17;;;;;;;5.67;1.77;;;12.70;99.90;;;;;;5037131;28;20199;-45
2022/06/20 02:22:45;;;;;;;4.80;2.00;;;12.60;99.90;;;;;;5039536;28;20195;-47
2022/06/20 02:25:16;;;;;;;6.00;2.10;;;12.60;99.90;;;;;;5043227;28;20215;-48
2022/06/20 02:27:47;;;;;;;2.53;2.00;;;12.60;99.90;;;;;;5024189;28;20206;-46
2022/06/20 02:30:16;;;;;;;4.10;2.00;;;12.50;99.90;;;;;;5043443;28;20753;-49
2022/06/20 02:32:47;;;;;;;2.13;1.50;;;12.50;99.90;;;;;;5039285;28;20199;-47
2022/06/20 02:35:17;;;;;;;3.10;1.80;;;12.50;99.90;;;;;;5043175;28;20617;-45
2022/06/20 02:37:46;;;;;;;3.60;1.77;;;12.50;99.90;;;;;;5032688;28;20198;-47
2022/06/20 02:40:15;;;;;;;7.70;2.43;;;12.30;99.90;;;;;;5040502;28;20252;-45
2022/06/20 02:42:46;;;;;;;4.63;1.67;;;12.30;99.90;;;;;;5024464;28;20207;-46
2022/06/20 02:45:15;;;;;;;7.87;2.20;;;12.20;99.90;;;;;;5042864;28;20209;-45
2022/06/20 02:47:45;;;;;;;5.47;1.97;;;12.20;99.90;;;;;;5038921;28;20245;-48
2022/06/20 02:50:14;;;;;;;4.90;1.63;;;12.20;99.90;;;;;;5043320;28;20580;-47
2022/06/20 02:52:46;;;;;;;4.07;1.90;;;12.20;99.90;;;;;;5032442;28;20210;-45
2022/06/20 02:55:16;;;;;;;3.03;1.57;;;12.10;99.90;;;;;;5036334;28;20199;-45
2022/06/20 02:57:46;;;;;;;3.13;1.67;;;12.10;99.90;;;;;;5018711;28;20215;-45
2022/06/20 03:00:17;;;;;;;6.77;1.43;;;12.10;99.90;;;;;;5042927;28;20667;-45
2022/06/20 03:02:51;;;;;;;4.77;1.70;;;12.10;99.90;;;;;;5039070;28;20195;-45
2022/06/20 03:05:19;;;;;;;6.23;1.67;;;12.00;99.90;;;;;;5042914;28;20273;-47
2022/06/20 03:07:49;;;;;;;6.60;2.00;;;11.90;99.90;;;;;;5032912;28;20195;-46
2022/06/20 03:10:21;;;;;;;2.43;1.50;;;11.80;99.90;;;;;;5037443;28;20263;-46
2022/06/20 03:12:48;;;;;;;4.10;1.50;;;11.80;99.90;;;;;;5035885;28;20194;-45
2022/06/20 03:15:17;;;;;;;6.10;1.60;;;11.70;99.90;;;;;;5027874;28;20302;-46
2022/06/20 03:17:46;;;;;;;3.97;1.60;;;11.70;99.90;;;;;;5038611;28;20203;-46
2022/06/20 03:20:14;;;;;;;5.17;1.90;;;11.70;99.90;;;;;;5043405;28;20274;-47
2022/06/20 03:22:50;;;;;;;4.23;2.00;;;11.80;99.90;;;;;;5027119;28;21013;-46
2022/06/20 03:25:19;;;;;;;4.33;1.47;;;11.80;99.90;;;;;;5042560;28;20210;-47
2022/06/20 03:27:48;;;;;;;4.63;1.43;;;11.80;99.90;;;;;;5039231;28;20198;-47
2022/06/20 03:30:28;;;;;;;6.33;2.00;;;11.80;99.90;;;;;;5028721;28;20730;-46
2022/06/20 03:32:55;;;;;;;4.93;1.87;;;11.80;99.90;;;;;;5040725;28;20325;-49
2022/06/20 03:35:22;;;;;;;5.23;1.43;;;11.70;99.90;;;;;;5041872;28;20253;-46
2022/06/20 03:37:49;;;;;;;5.77;1.90;;;11.80;99.90;;;;;;5032834;28;20207;-47
2022/06/20 03:40:18;;;;;;;5.77;2.00;;;11.80;99.90;;;;;;5044861;28;20197;-47
2022/06/20 03:42:44;;;;;;;6.07;2.30;;;11.80;99.90;;;;;;5041956;28;20199;-48
2022/06/20 03:45:15;;;;;;;8.30;2.20;;;11.80;99.90;;;;;;5046189;28;20199;-46
2022/06/20 03:47:46;;;;;;;4.70;2.47;;;11.80;99.90;;;;;;5027828;28;20306;-46
2022/06/20 03:50:17;;;;;;;4.43;2.10;;;11.70;99.90;;;;;;5045968;28;20207;-46
2022/06/20 03:52:50;;;;;;;4.00;2.03;;;11.80;99.90;;;;;;5042335;28;20269;-46
2022/06/20 03:55:23;;;;;;;2.63;2.10;;;11.80;99.90;;;;;;5035004;28;20214;-48
2022/06/20 03:57:56;;;;;;;6.03;2.03;;;11.90;99.90;;;;;;5043431;28;20195;-45
2022/06/20 04:00:29;;;;;;;5.10;2.57;;;11.90;99.90;;;;;;5045015;28;20191;-47
2022/06/20 04:03:02;;;;;;;6.33;2.00;;;12.00;99.90;;;;;;5024127;28;20293;-47
2022/06/20 04:05:34;;;;;;;6.90;2.07;;;11.90;99.90;;;;;;5043195;28;20214;-46
2022/06/20 04:08:07;;;;;;;4.87;2.20;;;11.90;99.90;;;;;;5045407;28;20208;-46
2022/06/20 04:10:59;;;;;;;3.73;2.40;;;11.90;99.90;;;;;;5029401;28;20227;-48
2022/06/20 04:13:32;;;;;;;7.47;2.27;;;12.00;99.90;;;;;;5041055;28;20202;-48
2022/06/20 04:16:04;;;;;;;8.97;2.97;;;12.00;99.90;;;;;;5044934;28;20203;-45
2022/06/20 04:18:39;;;;;;;5.20;2.90;;;12.10;99.90;;;;;;5028749;28;20207;-46
2022/06/20 04:21:20;;;;;;;7.10;2.60;;;12.10;99.90;;;;;;5045654;28;20215;-45
2022/06/20 04:23:53;;;;;;;5.67;2.60;;;12.20;99.90;;;;;;5036399;28;20469;-46
2022/06/20 04:26:25;;;;;;;6.93;2.83;;;12.20;99.90;;;;;;5033599;28;20207;-46
2022/06/20 04:28:57;;;;;;;3.40;2.37;;;12.20;99.90;;;;;;5043139;28;20199;-44
2022/06/20 04:31:37;;;;;;;4.60;2.13;;;12.20;99.90;;;;;;5039326;28;20237;-51
2022/06/20 04:34:14;;;;;;;8.97;3.63;;;12.30;99.90;;;;;;5043088;28;20286;-45
2022/06/20 04:36:49;;;;;;;6.23;3.23;;;12.30;99.90;;;;;;5041244;28;20277;-47
2022/06/20 04:39:22;;;;;;;5.80;2.43;;;12.30;99.90;;;;;;5033931;28;20211;-46
2022/06/20 04:41:53;;;;;;;8.37;3.50;;;12.30;99.90;;;;;;5029009;28;20230;-45
2022/06/20 04:44:28;;;;;;;8.07;2.67;;;12.30;99.90;;;;;;5040566;28;20202;-46
2022/06/20 04:47:07;;;;;;;4.73;2.47;;;12.30;99.90;;;;;;5045477;28;20203;-47
2022/06/20 04:49:38;;;;;;;6.13;2.47;;;12.40;99.90;;;;;;5036278;28;20218;-46
2022/06/20 04:52:09;;;;;;;10.03;2.80;;;12.40;99.90;;;;;;5042726;28;20584;-46
2022/06/20 04:54:36;;;;;;;7.77;2.37;;;12.50;99.90;;;;;;5043004;28;20191;-45
2022/06/20 04:57:03;;;;;;;5.70;3.13;;;12.60;99.90;;;;;;5036193;28;20261;-49
2022/06/20 04:59:33;;;;;;;5.87;2.40;;;12.60;99.90;;;;;;5037162;28;20195;-50
2022/06/20 05:02:05;;;;;;;4.03;2.70;;;12.60;99.90;;;;;;5038890;28;20211;-46
2022/06/20 05:04:36;;;;;;;10.07;2.77;;;12.70;99.90;;;;;;5028191;28;20234;-47
2022/06/20 05:07:11;;;;;;;5.23;2.00;;;12.80;99.90;;;;;;5034773;28;20921;-46
2022/06/20 05:09:45;;;;;;;4.70;2.23;;;12.80;99.90;;;;;;5034206;28;20199;-49
2022/06/20 05:12:19;;;;;;;6.77;2.27;;;12.90;99.90;;;;;;5028375;28;20223;-47
2022/06/20 05:14:53;;;;;;;6.83;2.20;;;12.90;99.90;;;;;;5039228;28;20836;-46
2022/06/20 05:17:24;;;;;;;6.10;1.95;;;13.00;99.90;;;;;;5037742;28;20443;-45
2022/06/20 05:19:55;;;;;;;6.60;2.40;;;13.10;99.90;;;;;;5021947;28;20195;-48
2022/06/20 05:22:27;;;;;;;7.68;2.67;;;13.20;99.90;;;;;;5033702;28;20822;-46
2022/06/20 05:24:56;;;;;;;6.40;2.13;;;13.30;99.90;;;;;;5038579;28;20203;-47
2022/06/20 05:27:28;;;;;;;3.93;1.83;;;13.30;99.90;;;;;;5036621;28;20615;-48
2022/06/20 05:30:00;;;;;;;5.27;2.20;;;13.40;99.90;;;;;;5032452;28;20203;-48
2022/06/20 05:32:36;;;;;;;9.10;2.30;;;13.40;99.90;;;;;;5035838;28;20211;-48
2022/06/20 05:35:08;;;;;;;4.90;1.60;;;13.40;99.90;;;;;;5023262;28;20207;-48
2022/06/20 05:37:45;;;;;;;6.60;2.03;;;13.50;99.90;;;;;;5026704;28;20227;-49
2022/06/20 05:40:18;;;;;;;10.70;2.10;;;13.60;99.90;;;;;;5034406;28;20226;-47
2022/06/20 05:42:46;;;;;;;6.23;1.73;;;13.60;99.90;;;;;;5032948;28;20202;-49
2022/06/20 05:45:17;;;;;;;7.23;1.87;;;13.70;99.90;;;;;;5036102;28;20195;-47
2022/06/20 05:47:50;;;;;;;7.93;2.53;;;13.80;99.90;;;;;;5037435;28;20883;-47
2022/06/20 05:50:27;;;;;;;10.30;2.15;;;13.90;99.90;;;;;;5029054;28;20510;-50
2022/06/20 05:52:56;;;;;;;6.07;1.60;;;14.00;99.90;;;;;;5029410;28;20543;-46
2022/06/20 05:55:26;;;;;;;6.47;2.20;;;14.10;99.90;;;;;;5031040;28;20203;-46
2022/06/20 05:57:55;;;;;;;5.85;1.83;;;14.20;99.90;;;;;;5023268;28;20435;-48
2022/06/20 06:00:26;;;;;;;7.38;2.00;;;14.30;99.90;;;;;;5033489;28;20423;-45
2022/06/20 06:02:57;;;;;;;6.60;2.45;;;14.40;99.90;;;;;;5032524;28;20506;-49
2022/06/20 06:05:30;;;;;;;4.50;1.60;;;14.70;99.90;;;;;;5012385;28;20207;-47
2022/06/20 06:08:02;;;;;;;3.97;1.83;;;14.70;99.90;;;;;;5033657;28;20687;-46
2022/06/20 06:10:37;;;;;;;8.77;2.65;;;14.70;99.90;;;;;;5033364;28;20527;-45
2022/06/20 06:13:14;;;;;;;10.27;2.00;;;14.90;99.90;;;;;;5029225;28;20198;-46
2022/06/20 06:18:37;;;;;;;6.80;2.20;;;15.00;99.90;;;;;;5033282;28;20531;-47
2022/06/20 06:21:04;;;;;;;6.97;2.50;;;15.30;99.90;;;;;;5023643;28;20489;-45
2022/06/20 06:23:33;;;;;;;10.23;2.03;;;15.40;99.90;;;;;;5027319;28;20199;-45
2022/06/20 06:25:59;;;;;;;5.47;2.37;;;15.20;99.90;;;;;;5042788;28;20214;-45
2022/06/20 06:28:28;;;;;;;7.70;2.63;;;15.10;99.90;;;;;;5032016;28;21007;-46
2022/06/20 06:30:57;;;;;;;5.33;2.40;;;14.90;99.90;;;;;;5040829;28;20284;-46
2022/06/20 06:33:30;;;;;;;6.67;2.47;;;14.80;99.90;;;;;;5039146;28;20252;-46
2022/06/20 06:36:01;;;;;;;9.30;3.03;;;14.80;99.90;;;;;;5036235;28;20195;-48
2022/06/20 06:38:33;;;;;;;5.33;2.37;;;14.80;99.90;;;;;;5015955;28;20930;-51
2022/06/20 06:41:04;;;;;;;6.83;2.37;;;14.70;99.90;;;;;;5039158;28;20281;-45
2022/06/20 06:43:38;;;;;;;7.00;1.93;;;14.60;99.90;;;;;;5030071;28;20334;-50
2022/06/20 06:46:10;;;;;;;5.47;1.93;;;14.50;99.90;;;;;;5036679;28;20222;-46
2022/06/20 06:48:45;;;;;;;2.97;1.23;;;14.50;99.90;;;;;;5036091;28;20222;-46
2022/06/20 06:51:17;;;;;;;3.40;1.27;;;14.40;99.90;;;;;;5023348;28;20226;-46
2022/06/20 06:53:48;;;;;;;4.07;1.53;;;14.40;99.90;;;;;;5021566;28;20211;-46
2022/06/20 06:56:23;;;;;;;3.20;1.17;;;14.40;99.90;;;;;;5022080;28;20226;-45
2022/06/20 06:58:56;;;;;;;5.13;1.43;;;14.40;99.90;;;;;;5029985;28;20656;-45
2022/06/20 07:01:27;;;;;;;3.33;1.10;;;14.40;99.90;;;;;;5018031;28;20273;-47
2022/06/20 07:03:58;;;;;;;4.00;1.40;;;14.40;99.90;;;;;;5038957;28;20204;-50
2022/06/20 07:06:30;;;;;;;2.67;1.30;;;14.50;99.90;;;;;;5023344;28;20935;-46
2022/06/20 07:09:01;;;;;;;2.80;1.23;;;14.50;99.90;;;;;;5023967;28;20711;-52
2022/06/20 07:11:33;;;;;;;2.73;1.30;;;14.60;99.90;;;;;;5021461;28;20223;-46
2022/06/20 07:14:04;;;;;;;4.53;1.13;;;14.60;99.90;;;;;;5034394;28;20235;-55
2022/06/20 07:16:39;;;;;;;6.43;1.77;;;14.70;99.90;;;;;;5018412;28;20799;-46
2022/06/20 07:19:08;;;;;;;2.53;1.27;;;14.80;99.90;;;;;;5038027;28;20203;-46
2022/06/20 07:21:38;;;;;;;5.60;1.40;;;14.80;99.90;;;;;;5024485;28;20231;-49
2022/06/20 07:24:08;;;;;;;4.27;1.20;;;14.90;99.90;;;;;;5029662;28;20290;-49
2022/06/20 07:26:44;;;;;;;4.97;1.23;;;15.00;99.90;;;;;;5025522;28;20207;-48
2022/06/20 07:29:15;;;;;;;3.10;1.03;;;15.10;99.90;;;;;;5036182;28;20207;-45
2022/06/20 07:31:46;;;;;;;3.17;1.63;;;15.10;99.90;;;;;;5030395;28;20731;-47
2022/06/20 07:34:18;;;;;;;3.50;1.30;;;15.10;99.90;;;;;;5037760;28;20191;-47
2022/06/20 07:36:48;;;;;;;4.47;1.30;;;15.20;99.90;;;;;;5035587;28;20937;-47
2022/06/20 07:39:20;;;;;;;3.03;1.33;;;15.20;99.90;;;;;;5022382;28;20203;-45
2022/06/20 07:41:54;;;;;;;2.50;1.23;;;15.20;99.90;;;;;;5032776;28;20221;-51
2022/06/20 07:44:24;;;;;;;5.87;1.27;;;15.20;99.90;;;;;;5025490;28;20204;-50
2022/06/20 07:46:56;;;;;;;3.87;1.17;;;15.20;99.90;;;;;;5031144;28;20682;-46
2022/06/20 07:49:28;;;;;;;2.60;1.70;;;15.20;99.90;;;;;;5032175;28;20622;-47
2022/06/20 07:51:58;;;;;;;2.33;0.80;;;15.40;99.90;;;;;;5043291;28;20227;-48
2022/06/20 07:54:30;;;;;;;3.20;0.90;;;15.50;99.90;;;;;;5015422;28;20215;-51
2022/06/20 07:57:03;;;;;;;2.60;1.00;;;15.70;99.90;;;;;;5034653;28;20211;-49
2022/06/20 07:59:33;;;;;;;1.47;0.70;;;15.80;99.90;;;;;;5029272;28;21107;-47
2022/06/20 08:02:07;;;;;;;4.47;1.10;;;15.90;99.90;;;;;;5030852;28;20227;-50
2022/06/20 08:04:35;;;;;;;1.27;1.00;;;16.00;99.90;;;;;;5037799;28;20215;-45
2022/06/20 08:07:07;;;;;;;2.73;0.90;;;16.10;99.90;;;;;;5036919;28;20207;-45
2022/06/20 08:09:39;;;;;;;3.57;1.07;;;16.20;99.90;;;;;;5016404;28;20214;-47
2022/06/20 08:12:14;;;;;;;4.47;1.23;;;16.20;99.90;;;;;;5036847;28;20276;-49
2022/06/20 08:14:46;;;;;;;2.70;0.90;;;16.00;99.90;;;;;;5034201;28;20204;-45
2022/06/20 08:17:13;;;;;;;4.97;1.20;;;15.80;99.90;;;;;;5029475;28;20203;-49
2022/06/20 08:19:43;;;;;;;2.70;1.20;;;15.80;99.90;;;;;;5034573;28;20955;-46
2022/06/20 08:22:15;;;;;;;4.83;1.13;;;15.70;99.90;;;;;;5036352;28;20212;-47
2022/06/20 08:24:47;;;;;;;2.93;1.03;;;15.70;99.90;;;;;;5025369;28;20207;-47
2022/06/20 08:27:22;;;;;;;2.30;1.37;;;15.60;99.90;;;;;;5017030;28;20212;-49
2022/06/20 08:29:58;;;;;;;1.83;1.20;;;15.60;99.90;;;;;;5029899;28;20216;-45
2022/06/20 08:32:34;;;;;;;2.57;1.33;;;15.60;99.90;;;;;;5032148;28;20219;-47
2022/06/20 08:35:13;;;;;;;2.20;1.23;;;15.60;99.90;;;;;;5034762;28;20258;-47
2022/06/20 08:37:45;;;;;;;9.23;2.47;;;15.60;99.90;;;;;;5029642;28;20192;-45
2022/06/20 08:40:46;;;;;;;3.97;2.03;;;15.60;99.90;;;;;;5024332;28;20605;-47
2022/06/20 08:43:40;;;;;;;5.00;1.97;;;15.60;99.90;;;;;;5003422;28;20229;-49
2022/06/20 08:46:34;;;;;;;3.53;2.20;;;15.70;99.90;;;;;;5025476;28;20437;-46
2022/06/20 08:49:48;;;;;;;2.33;1.30;;;15.90;99.90;;;;;;5029873;28;20202;-48
2022/06/20 08:52:56;;;;;;;3.77;1.50;;;15.90;99.90;;;;;;5034828;28;20231;-47
2022/06/20 08:55:42;;;;;;;5.97;1.80;;;15.90;99.90;;;;;;4995826;28;20226;-47
2022/06/20 08:58:20;;;;;;;4.43;1.83;;;16.10;99.90;;;;;;5023638;28;20397;-48
2022/06/20 09:01:00;;;;;;;6.03;1.80;;;16.20;99.90;;;;;;5030657;28;20807;-45
2022/06/20 09:03:44;;;;;;;1.60;1.27;;;16.20;99.90;;;;;;5036854;28;20203;-48
2022/06/20 09:06:28;;;;;;;5.03;1.87;;;16.10;99.90;;;;;;5036930;28;20212;-48
2022/06/20 09:09:26;;;;;;;3.07;1.13;;;16.10;99.90;;;;;;5025170;28;20195;-51
2022/06/20 09:12:25;;;;;;;3.50;1.53;;;16.20;99.90;;;;;;5028293;28;20216;-50
2022/06/20 09:15:12;;;;;;;4.20;1.43;;;16.20;99.90;;;;;;5018043;28;20214;-45
2022/06/20 09:17:53;;;;;;;2.30;1.30;;;16.30;99.90;;;;;;5040418;28;20261;-44
2022/06/20 09:20:29;;;;;;;3.83;1.70;;;16.40;99.90;;;;;;5030854;28;20206;-46
2022/06/20 09:23:17;;;;;;;3.90;1.50;;;16.50;99.90;;;;;;5027870;28;20389;-49
2022/06/20 09:25:56;;;;;;;1.40;1.30;;;16.60;99.90;;;;;;5030572;28;20196;-45
2022/06/20 09:28:46;;;;;;;4.83;1.77;;;16.70;99.90;;;;;;5025334;28;20546;-45
2022/06/20 09:31:36;;;;;;;4.07;1.43;;;16.90;99.90;;;;;;5026262;28;20227;-45
2022/06/20 09:34:38;;;;;;;2.37;1.23;;;17.20;99.90;;;;;;5030531;28;20207;-48
2022/06/20 09:37:40;;;;;;;5.17;1.60;;;17.20;99.90;;;;;;5029329;28;20191;-45
2022/06/20 09:40:22;;;;;;;5.47;1.93;;;17.10;99.90;;;;;;4994360;28;20333;-49
2022/06/20 09:42:59;;;;;;;4.23;1.93;;;17.10;99.90;;;;;;5019449;28;20210;-45
2022/06/20 09:45:36;;;;;;;2.43;1.90;;;17.00;99.90;;;;;;5018137;28;20226;-46
2022/06/20 09:48:12;;;;;;;4.60;1.83;;;17.00;99.90;;;;;;5027375;28;20210;-51
2022/06/20 09:50:55;;;;;;;8.30;2.47;;;17.10;99.90;;;;;;5024290;28;20219;-46
2022/06/20 09:53:36;;;;;;;7.20;2.03;;;17.10;99.90;;;;;;5034983;28;20251;-48
2022/06/20 09:56:08;;;;;;;8.13;2.03;;;17.00;99.90;;;;;;5030632;28;20192;-48
2022/06/20 09:58:44;;;;;;;3.37;1.80;;;17.00;99.90;;;;;;5030740;28;20257;-46
2022/06/20 10:01:22;;;;;;;4.20;1.83;;;17.10;99.90;;;;;;5023481;28;20699;-46
2022/06/20 10:03:55;;;;;;;3.77;1.77;;;17.30;99.90;;;;;;5025712;28;20207;-49
2022/06/20 10:06:35;;;;;;;6.07;1.80;;;17.40;99.90;;;;;;5033571;28;20214;-45
2022/06/20 10:09:10;;;;;;;6.23;2.20;;;17.60;99.90;;;;;;5033813;28;20203;-46
2022/06/20 10:11:42;;;;;;;4.50;1.87;;;17.50;99.90;;;;;;5033185;28;20305;-45
2022/06/20 10:14:14;;;;;;;6.07;2.03;;;17.40;99.90;;;;;;5030337;28;20195;-45
2022/06/20 10:16:50;;;;;;;4.33;1.37;;;17.40;99.90;;;;;;5022918;28;20203;-49
2022/06/20 10:19:23;;;;;;;4.00;1.60;;;17.60;99.90;;;;;;5036826;28;20207;-49
2022/06/20 10:21:59;;;;;;;3.57;1.80;;;17.60;99.90;;;;;;5015117;28;20222;-50
2022/06/20 10:24:46;;;;;;;6.40;2.03;;;17.50;99.90;;;;;;5033670;28;20198;-51
2022/06/20 10:27:56;;;;;;;4.87;1.57;;;17.30;99.90;;;;;;5036809;28;20203;-48
2022/06/20 10:30:37;;;;;;;4.50;1.93;;;17.10;99.90;;;;;;5024238;28;20285;-53
2022/06/20 10:33:18;;;;;;;2.57;1.70;;;17.00;99.90;;;;;;5018485;28;20292;-45
2022/06/20 10:35:50;;;;;;;3.27;1.30;;;17.10;99.90;;;;;;5023977;28;20214;-47
2022/06/20 10:38:27;;;;;;;2.47;1.17;;;17.30;98.90;;;;;;5037939;28;20192;-49
2022/06/20 10:41:04;;;;;;;6.13;1.90;;;17.60;97.90;;;;;;5024394;28;20220;-47
2022/06/20 10:43:47;;;;;;;4.00;1.50;;;17.80;97.60;;;;;;5027687;28;20196;-46
2022/06/20 10:46:23;;;;;;;2.77;1.40;;;18.00;98.10;;;;;;5027533;28;20203;-46
2022/06/20 10:49:19;;;;;;;7.63;1.97;;;18.10;98.10;;;;;;5008841;28;20210;-48
2022/06/20 10:51:56;;;;;;;5.37;1.80;;;18.10;98.00;;;;;;5031717;28;20223;-47
2022/06/20 10:54:44;;;;;;;4.00;1.60;;;18.00;97.70;;;;;;5038037;28;20207;-46
2022/06/20 10:57:22;;;;;;;2.10;1.50;;;18.00;97.60;;;;;;5028109;28;20286;-47
2022/06/20 10:59:56;;;;;;;7.27;1.83;;;18.10;96.90;;;;;;5023310;28;20226;-46
2022/06/20 11:02:44;;;;;;;4.83;1.80;;;18.00;97.20;;;;;;5028214;28;20215;-45
2022/06/20 11:05:20;;;;;;;2.53;1.77;;;18.00;97.00;;;;;;5017111;28;20208;-47
2022/06/20 11:07:54;;;;;;;5.40;1.93;;;18.00;98.00;;;;;;5030147;28;20284;-50
2022/06/20 11:10:41;;;;;;;3.70;1.77;;;18.00;97.70;;;;;;5044120;28;20717;-45
2022/06/20 11:13:17;;;;;;;3.37;1.37;;;17.90;96.70;;;;;;5031028;28;20222;-44
2022/06/20 11:15:49;;;;;;;3.83;1.23;;;17.90;95.00;;;;;;5035993;28;20217;-44
2022/06/20 11:18:38;;;;;;;3.27;1.37;;;17.80;96.20;;;;;;5023005;28;20210;-46
2022/06/20 11:21:16;;;;;;;4.87;1.87;;;17.90;96.00;;;;;;5023934;28;20219;-47
2022/06/20 11:23:52;;;;;;;2.83;1.63;;;18.10;96.60;;;;;;5038155;28;20207;-49
2022/06/20 11:26:34;;;;;;;5.23;1.50;;;18.40;97.00;;;;;;5042194;28;20191;-51
2022/06/20 11:29:21;;;;;;;1.93;1.50;;;18.50;96.40;;;;;;5038158;28;20942;-47
2022/06/20 11:31:57;;;;;;;4.57;1.40;;;18.50;97.40;;;;;;5027542;28;20230;-46
2022/06/20 11:34:50;;;;;;;4.43;1.87;;;18.50;95.60;;;;;;5026736;28;20226;-48
2022/06/20 11:37:29;;;;;;;3.40;1.33;;;18.10;96.70;;;;;;5032524;28;20231;-46
2022/06/20 11:40:23;;;;;;;3.60;1.60;;;17.80;96.30;;;;;;5034198;28;20198;-45
2022/06/20 11:43:29;;;;;;;1.87;1.27;;;17.60;96.50;;;;;;5028217;28;20659;-46
2022/06/20 11:46:14;;;;;;;4.90;1.30;;;17.60;97.40;;;;;;5020682;28;20901;-44
2022/06/20 11:48:55;;;;;;;2.00;1.17;;;17.80;97.10;;;;;;5021638;28;20214;-45
2022/06/20 11:51:28;;;;;;;1.60;1.17;;;18.10;95.60;;;;;;5039509;28;20212;-45
2022/06/20 11:54:08;;;;;;;2.83;0.97;;;18.40;95.70;;;;;;5027906;28;20219;-43
2022/06/20 11:56:43;;;;;;;1.43;1.00;;;18.60;94.10;;;;;;5043543;28;20288;-45
2022/06/20 11:59:23;;;;;;;2.90;0.90;;;18.80;94.70;;;;;;5032979;28;20298;-44
2022/06/20 12:01:57;;;;;;;2.33;1.20;;;18.60;94.70;;;;;;5028629;28;20228;-49
2022/06/20 12:04:32;;;;;;;1.70;1.10;;;18.20;96.30;;;;;;5013851;28;20278;-47
2022/06/20 12:07:06;;;;;;;3.10;1.23;;;17.90;98.40;;;;;;5026553;28;20297;-49
2022/06/20 12:09:39;;;;;;;3.47;1.10;;;17.60;99.80;;;;;;5032095;28;20204;-51
2022/06/20 12:12:21;;;;;;;2.80;1.40;;;17.40;99.90;;;;;;5018282;28;20246;-47
2022/06/20 12:15:03;;;;;;;2.03;0.80;;;17.50;99.90;;;;;;5031691;28;20203;-48
2022/06/20 12:17:38;;;;;;;0.97;0.87;;;17.70;99.90;;;;;;5029230;28;20282;-51
2022/06/20 12:23:26;;;;;;;0.90;0.70;;;17.90;97.20;;;;;;4970566;28;20319;-48
2022/06/20 12:25:59;;;;;;;2.27;0.73;;;18.10;97.70;;;;;;5029567;28;20413;-48
2022/06/20 12:28:31;;;;;;;1.63;0.80;;;18.30;96.00;;;;;;5039829;28;20562;-48
2022/06/20 12:31:10;;;;;;;3.13;0.70;;;18.30;95.90;;;;;;5028542;28;20215;-47
2022/06/20 12:33:43;;;;;;;0.93;0.80;;;18.40;95.60;;;;;;5021218;28;20237;-44
2022/06/20 12:36:20;;;;;;;1.23;0.90;;;18.50;95.40;;;;;;5026412;28;20210;-49
2022/06/20 12:38:55;;;;;;;3.77;1.30;;;18.60;94.20;;;;;;5028505;28;20718;-47
2022/06/20 12:41:25;;;;;;;2.00;0.87;;;18.30;94.20;;;;;;5038186;28;20233;-43
2022/06/20 12:44:09;;;;;;;1.63;0.80;;;18.00;95.10;;;;;;5036987;28;20203;-47
2022/06/20 12:46:50;;;;;;;3.00;1.00;;;18.00;95.80;;;;;;5028726;28;20188;-47
2022/06/20 12:49:34;;;;;;;1.60;1.30;;;18.00;95.80;;;;;;5013327;28;20207;-45
2022/06/20 12:52:08;;;;;;;2.40;0.90;;;18.10;95.90;;;;;;5038542;28;20219;-46
2022/06/20 12:54:51;;;;;;;1.83;1.00;;;18.20;95.60;;;;;;5032977;28;21137;-45
2022/06/20 12:57:42;;;;;;;1.43;0.63;;;18.10;95.20;;;;;;5030781;28;20589;-43
2022/06/20 13:00:20;;;;;;;0.90;0.70;;;18.50;95.40;;;;;;5034525;28;20556;-45
2022/06/20 13:03:24;;;;;;;3.03;0.77;;;19.00;91.40;;;;;;5035495;28;20273;-44
2022/06/20 13:06:06;;;;;;;1.50;0.63;;;19.50;92.40;;;;;;5027386;28;20699;-45
2022/06/20 13:08:56;;;;;;;2.50;0.77;;;20.20;91.20;;;;;;5029758;28;20927;-46
2022/06/20 13:11:36;;;;;;;12.00;1.57;;;20.00;89.20;;;;;;5029996;28;20227;-44
2022/06/20 13:14:30;;;;;;;3.73;1.00;;;19.70;90.00;;;;;;5037481;28;20306;-48
2022/06/20 13:17:11;;;;;;;1.87;0.80;;;19.70;90.70;;;;;;5030077;28;20204;-44
2022/06/20 13:19:54;;;;;;;3.57;0.80;;;19.40;90.70;;;;;;5017523;28;22518;-46
2022/06/20 13:22:29;;;;;;;2.77;0.97;;;19.40;91.40;;;;;;5017618;28;20219;-47
2022/06/20 13:25:06;;;;;;;1.27;0.80;;;20.00;90.60;;;;;;5020573;28;20206;-48
2022/06/20 13:27:43;;;;;;;0.73;0.73;;;20.60;89.10;;;;;;5021822;28;20207;-48
2022/06/20 13:30:19;;;;;;;1.93;0.90;;;20.60;85.80;;;;;;5028453;28;20200;-63
2022/06/20 13:32:54;;;;;;;3.83;0.90;;;20.20;88.50;;;;;;5033905;28;20717;-43